Time;durP1;ratioP1;P1;durP2;ratioP2;P2;SDS_P1;SDS_P2;PMS_P1;PMS_P2;Temp;Humidity;BMP_temperature;BMP_pressure;BME280_temperature;BME280_humidity;BME280_pressure;Samples;Min_cycle;Max_cycle;Signal;HPM_P1;HPM_P2
2023/06/24 00:02:16;;;;;;;8.30;5.03;;;;;;;17.37;100.00;99911.81;5028842;28;20230;-78
2023/06/24 00:04:45;;;;;;;6.87;5.60;;;;;;;17.27;100.00;99911.72;5026114;28;20261;-78
2023/06/24 00:07:13;;;;;;;8.40;5.60;;;;;;;17.29;100.00;99908.94;5005356;28;20193;-78
2023/06/24 00:09:42;;;;;;;6.50;5.47;;;;;;;17.27;100.00;99913.53;5046688;28;20190;-78
2023/06/24 00:12:19;;;;;;;7.97;5.23;;;;;;;17.09;100.00;99916.72;5047607;28;20185;-78
2023/06/24 00:14:49;;;;;;;9.97;6.00;;;;;;;17.10;100.00;99910.41;5046427;28;20196;-78
2023/06/24 00:17:17;;;;;;;7.90;5.67;;;;;;;17.06;100.00;99918.78;5044035;28;20196;-78
2023/06/24 00:19:46;;;;;;;7.63;5.10;;;;;;;17.17;100.00;99926.81;5054702;28;20237;-78
2023/06/24 00:22:14;;;;;;;5.90;5.00;;;;;;;17.28;100.00;99925.97;5092521;28;20252;-77
2023/06/24 00:24:50;;;;;;;7.37;5.53;;;;;;;17.21;100.00;99916.72;5090459;28;20220;-78
2023/06/24 00:27:20;;;;;;;6.03;5.10;;;;;;;16.76;100.00;99917.53;5090687;28;20669;-77
2023/06/24 00:29:52;;;;;;;5.63;4.67;;;;;;;16.94;100.00;99917.91;5083398;28;20394;-78
2023/06/24 00:32:20;;;;;;;7.30;5.00;;;;;;;16.92;100.00;99916.34;5091203;28;20274;-77
2023/06/24 00:34:50;;;;;;;5.33;4.77;;;;;;;16.94;100.00;99912.56;5086913;28;20198;-78
2023/06/24 00:37:18;;;;;;;7.10;5.10;;;;;;;16.99;100.00;99912.22;5088465;28;20222;-78
2023/06/24 00:39:47;;;;;;;6.93;5.33;;;;;;;16.88;100.00;99913.88;5086090;28;20203;-78
2023/06/24 00:42:15;;;;;;;6.20;5.37;;;;;;;16.46;100.00;99918.03;5111607;28;20195;-77
2023/06/24 00:44:44;;;;;;;5.90;5.30;;;;;;;16.64;100.00;99917.59;5112613;28;20569;-78
2023/06/24 00:47:14;;;;;;;6.40;5.80;;;;;;;16.70;100.00;99927.88;5099585;28;20198;-78
2023/06/24 00:49:45;;;;;;;5.80;5.20;;;;;;;16.79;100.00;99928.00;5112446;28;20191;-78
2023/06/24 00:52:15;;;;;;;5.83;5.23;;;;;;;16.87;100.00;99941.63;5085738;27;20759;-78
2023/06/24 00:54:43;;;;;;;7.83;6.27;;;;;;;16.78;100.00;99936.97;5128510;27;20195;-78
2023/06/24 00:57:13;;;;;;;7.03;6.03;;;;;;;16.77;100.00;99937.94;5129494;27;20205;-78
2023/06/24 00:59:45;;;;;;;7.77;5.67;;;;;;;16.92;100.00;99932.41;5131557;27;20233;-77
2023/06/24 01:02:15;;;;;;;7.83;6.07;;;;;;;17.00;100.00;99936.19;5126981;27;20267;-78
2023/06/24 01:04:44;;;;;;;6.03;5.30;;;;;;;16.93;100.00;99926.91;5086302;28;20216;-78
2023/06/24 01:07:12;;;;;;;7.87;5.57;;;;;;;16.88;100.00;99927.25;5083827;28;20736;-78
2023/06/24 01:09:41;;;;;;;6.13;5.40;;;;;;;16.86;100.00;99925.69;5087262;28;20274;-77
2023/06/24 01:12:10;;;;;;;6.57;5.83;;;;;;;16.68;100.00;99935.97;5089514;28;20196;-78
2023/06/24 01:14:38;;;;;;;8.00;5.63;;;;;;;16.81;100.00;99935.91;5049171;28;20197;-78
2023/06/24 01:17:13;;;;;;;5.90;5.07;;;;;;;16.75;100.00;99931.88;5045169;28;20197;-78
2023/06/24 01:20:01;;;;;;;6.53;5.63;;;;;;;16.66;100.00;99926.34;5048221;28;20227;-78
2023/06/24 01:22:46;;;;;;;6.90;4.90;;;;;;;16.57;100.00;99927.91;5052611;28;20219;-78
2023/06/24 01:25:34;;;;;;;8.77;5.50;;;;;;;16.44;100.00;99922.63;5069098;28;20230;-77
2023/06/24 01:28:25;;;;;;;5.30;4.80;;;;;;;16.38;100.00;99924.91;5070278;28;20239;-78
2023/06/24 01:31:23;;;;;;;6.90;5.60;;;;;;;16.48;100.00;99920.56;5065796;28;20203;-78
2023/06/24 01:34:00;;;;;;;7.80;5.60;;;;;;;16.58;100.00;99919.75;5064972;28;20193;-78
2023/06/24 01:36:33;;;;;;;7.10;5.10;;;;;;;16.43;100.00;99928.97;5068842;28;20698;-78
2023/06/24 01:39:04;;;;;;;6.77;5.37;;;;;;;16.47;100.00;99925.06;5015388;28;20221;-78
2023/06/24 01:41:37;;;;;;;6.93;5.57;;;;;;;16.29;100.00;99923.78;5047737;28;20699;-78
2023/06/24 01:44:10;;;;;;;6.10;5.40;;;;;;;16.41;100.00;99927.38;5043373;28;20220;-77
2023/06/24 01:46:40;;;;;;;6.07;5.00;;;;;;;16.25;100.00;99919.66;5043681;28;20211;-78
2023/06/24 01:49:14;;;;;;;8.47;5.37;;;;;;;16.43;100.00;99922.75;5046523;28;20204;-78
2023/06/24 01:51:47;;;;;;;6.67;5.40;;;;;;;16.35;100.00;99922.47;5049355;28;20284;-78
2023/06/24 01:54:19;;;;;;;7.07;5.30;;;;;;;16.11;100.00;99927.84;5046874;28;20200;-78
2023/06/24 01:56:49;;;;;;;7.03;5.90;;;;;;;16.11;100.00;99927.84;5047416;28;20679;-78
2023/06/24 01:59:20;;;;;;;8.57;6.10;;;;;;;16.19;100.00;99936.13;5049029;28;20205;-78
2023/06/24 02:01:48;;;;;;;9.00;6.50;;;;;;;16.09;100.00;99943.13;5043103;28;20196;-78
2023/06/24 02:04:20;;;;;;;7.43;6.00;;;;;;;16.19;100.00;99933.47;5045793;28;20228;-77
2023/06/24 02:06:50;;;;;;;6.60;5.63;;;;;;;16.24;100.00;99936.66;5043322;28;20216;-78
2023/06/24 02:09:20;;;;;;;6.27;5.47;;;;;;;16.23;100.00;99934.97;5047836;28;20267;-77
2023/06/24 02:11:50;;;;;;;8.90;5.70;;;;;;;16.19;100.00;99941.47;5045763;28;20209;-78
2023/06/24 02:14:20;;;;;;;8.83;6.10;;;;;;;16.16;100.00;99939.91;5048696;28;20736;-78
2023/06/24 02:16:56;;;;;;;7.70;6.00;;;;;;;15.97;100.00;99943.09;5089951;27;20198;-78
2023/06/24 02:19:30;;;;;;;8.93;6.40;;;;;;;15.89;100.00;99936.59;5129464;27;20186;-78
2023/06/24 02:22:00;;;;;;;7.03;6.07;;;;;;;15.97;100.00;99936.88;5126689;27;20202;-78
2023/06/24 02:24:29;;;;;;;6.60;5.47;;;;;;;15.79;100.00;99939.09;5125663;27;20218;-78
2023/06/24 02:27:00;;;;;;;7.17;5.67;;;;;;;15.86;100.00;99943.03;5126202;27;20656;-77
2023/06/24 02:29:30;;;;;;;6.60;6.00;;;;;;;15.63;100.00;99942.03;5128524;27;20264;-78
2023/06/24 02:31:59;;;;;;;6.07;5.47;;;;;;;15.70;100.00;99945.94;5133590;27;20202;-78
2023/06/24 02:34:29;;;;;;;7.43;5.53;;;;;;;15.72;100.00;99941.34;5131844;27;20669;-78
2023/06/24 02:36:58;;;;;;;6.10;5.50;;;;;;;15.70;100.00;99947.78;5124649;27;20191;-78
2023/06/24 02:39:27;;;;;;;6.97;5.93;;;;;;;15.48;100.00;99936.91;5046190;28;20220;-78
2023/06/24 02:41:56;;;;;;;6.53;5.30;;;;;;;15.61;100.00;99945.75;5041194;28;20255;-78
2023/06/24 02:44:24;;;;;;;5.80;5.20;;;;;;;15.65;100.00;99937.44;5044211;28;20216;-77
2023/06/24 02:46:55;;;;;;;5.90;5.30;;;;;;;15.72;100.00;99938.66;5046608;28;20394;-78
2023/06/24 02:49:24;;;;;;;7.10;5.77;;;;;;;15.84;100.00;99936.09;5041677;28;20205;-78
2023/06/24 02:51:54;;;;;;;7.57;5.53;;;;;;;15.74;100.00;99926.09;5042385;28;20652;-77
2023/06/24 02:54:23;;;;;;;6.50;5.27;;;;;;;15.64;100.00;99927.72;5047595;28;20193;-78
2023/06/24 02:56:52;;;;;;;6.27;5.13;;;;;;;15.70;100.00;99929.91;5063463;27;20198;-78
2023/06/24 02:59:22;;;;;;;6.60;5.57;;;;;;;15.62;100.00;99934.13;5126432;27;20195;-77
2023/06/24 03:01:52;;;;;;;6.73;5.03;;;;;;;15.43;100.00;99938.06;5123014;27;20205;-78
2023/06/24 03:04:21;;;;;;;6.83;5.30;;;;;;;15.42;100.00;99946.19;5127036;27;20221;-78
2023/06/24 03:06:50;;;;;;;7.20;6.10;;;;;;;15.48;100.00;99936.91;5127754;27;20198;-78
2023/06/24 03:09:21;;;;;;;6.97;6.27;;;;;;;15.34;100.00;99941.41;5124021;27;20210;-78
2023/06/24 03:11:49;;;;;;;6.60;5.67;;;;;;;15.34;100.00;99948.56;5131324;27;20193;-78
2023/06/24 03:14:18;;;;;;;6.47;5.80;;;;;;;15.28;100.00;99943.66;5132357;27;20209;-77
2023/06/24 03:16:46;;;;;;;8.17;5.80;;;;;;;15.32;100.00;99950.47;5125975;27;20202;-77
2023/06/24 03:19:15;;;;;;;6.90;6.20;;;;;;;15.11;100.00;99955.53;5126121;27;20667;-77
2023/06/24 03:21:43;;;;;;;8.60;5.90;;;;;;;15.23;100.00;99946.66;5092315;27;20198;-77
2023/06/24 03:24:13;;;;;;;6.67;5.40;;;;;;;15.17;100.00;99950.63;5127904;27;20239;-78
2023/06/24 03:26:45;;;;;;;9.30;5.90;;;;;;;15.22;100.00;99958.28;5123172;27;20221;-78
2023/06/24 03:29:13;;;;;;;7.13;5.70;;;;;;;15.14;100.00;99957.97;5130851;27;20190;-78
2023/06/24 03:31:45;;;;;;;10.37;5.93;;;;;;;15.14;100.00;99957.97;5125189;27;20182;-78
2023/06/24 03:34:14;;;;;;;8.70;6.40;;;;;;;15.09;100.00;99960.13;5122763;27;20334;-78
2023/06/24 03:36:42;;;;;;;12.40;6.30;;;;;;;15.14;100.00;99964.16;5123738;27;20205;-77
2023/06/24 03:39:11;;;;;;;12.13;6.30;;;;;;;15.20;100.00;99959.38;5130917;27;20191;-78
2023/06/24 03:41:40;;;;;;;8.10;6.47;;;;;;;15.18;100.00;99956.81;5122853;27;20218;-78
2023/06/24 03:44:09;;;;;;;8.70;6.50;;;;;;;15.06;100.00;99955.00;5122277;27;20204;-78
2023/06/24 03:46:38;;;;;;;9.47;6.50;;;;;;;15.02;100.00;99958.81;5128452;27;20229;-77
2023/06/24 03:49:06;;;;;;;7.43;6.50;;;;;;;15.07;100.00;99954.91;5129441;27;20197;-78
2023/06/24 03:51:34;;;;;;;8.57;6.50;;;;;;;15.17;100.00;99961.28;5126308;28;20329;-77
2023/06/24 03:54:02;;;;;;;8.83;6.10;;;;;;;15.30;100.00;99968.44;5122794;28;20200;-78
2023/06/24 03:56:31;;;;;;;9.23;6.43;;;;;;;15.21;100.00;99966.41;5127776;28;20194;-77
2023/06/24 03:58:59;;;;;;;9.07;6.43;;;;;;;15.32;100.00;99969.16;5124529;28;20218;-77
2023/06/24 04:01:31;;;;;;;8.03;6.83;;;;;;;15.39;100.00;99967.78;5124518;28;20205;-77
2023/06/24 04:03:59;;;;;;;7.97;6.23;;;;;;;15.46;100.00;99964.56;5123971;28;20205;-77
2023/06/24 04:06:28;;;;;;;7.83;6.70;;;;;;;15.44;100.00;99962.94;5131367;28;20297;-77
2023/06/24 04:08:57;;;;;;;9.33;7.10;;;;;;;15.44;100.00;99958.50;5122316;28;20198;-78
2023/06/24 04:11:25;;;;;;;9.43;6.43;;;;;;;15.51;100.00;99966.03;5123215;27;20198;-78
2023/06/24 04:13:53;;;;;;;11.13;6.63;;;;;;;15.52;100.00;99981.09;5125989;27;20205;-78
2023/06/24 04:16:23;;;;;;;9.20;7.17;;;;;;;15.59;100.00;99983.22;5133197;27;20204;-78
2023/06/24 04:18:53;;;;;;;9.83;8.10;;;;;;;15.47;100.00;99981.44;5130687;27;20218;-78
2023/06/24 04:21:21;;;;;;;9.07;7.70;;;;;;;15.66;100.00;99981.88;5127419;27;20198;-78
2023/06/24 04:23:51;;;;;;;10.40;8.57;;;;;;;15.70;100.00;99980.69;5129900;27;20204;-77
2023/06/24 04:26:19;;;;;;;12.60;8.70;;;;;;;15.85;100.00;99980.53;5123070;27;20225;-78
2023/06/24 04:28:48;;;;;;;9.73;8.50;;;;;;;15.96;100.00;99984.13;5130215;27;20240;-77
2023/06/24 04:31:19;;;;;;;11.67;7.37;;;;;;;16.00;100.00;99985.59;5102320;27;20193;-78
2023/06/24 04:33:47;;;;;;;9.33;8.27;;;;;;;16.05;100.00;99989.78;5125935;27;20218;-77
2023/06/24 04:36:20;;;;;;;11.07;8.23;;;;;;;16.04;100.00;99983.59;5130460;27;20190;-77
2023/06/24 04:38:49;;;;;;;11.03;8.47;;;;;;;15.87;100.00;99990.16;5129478;27;20198;-77
2023/06/24 04:41:18;;;;;;;10.10;8.57;;;;;;;16.01;100.00;99983.78;5132490;27;20225;-77
2023/06/24 04:43:46;;;;;;;10.20;8.33;;;;;;;16.17;100.00;99984.38;5134374;27;20196;-77
2023/06/24 04:46:16;;;;;;;10.27;8.00;;;;;;;16.20;100.00;99978.78;5129637;27;20218;-78
2023/06/24 04:48:44;;;;;;;9.30;8.20;;;;;;;16.31;100.00;99981.53;5130318;27;20190;-78
2023/06/24 04:51:12;;;;;;;9.87;8.87;;;;;;;16.38;100.00;99991.75;5127714;27;20201;-78
2023/06/24 04:53:42;;;;;;;11.70;8.83;;;;;;;16.36;100.00;99977.66;5130498;27;20677;-78
2023/06/24 04:56:11;;;;;;;11.03;9.13;;;;;;;16.33;100.00;99981.44;5123306;27;20190;-78
2023/06/24 04:58:39;;;;;;;9.27;8.13;;;;;;;16.50;100.00;99980.13;5126415;27;20190;-78
2023/06/24 05:01:07;;;;;;;11.90;8.30;;;;;;;16.57;100.00;99982.25;5131090;27;20214;-78
2023/06/24 05:03:36;;;;;;;9.67;7.93;;;;;;;16.54;100.00;99989.66;5128087;27;20205;-78
2023/06/24 05:06:06;;;;;;;10.77;8.23;;;;;;;16.59;100.00;99985.66;5128673;27;20317;-78
2023/06/24 05:08:34;;;;;;;12.03;8.33;;;;;;;16.64;100.00;99990.66;5127307;27;20229;-78
2023/06/24 05:11:05;;;;;;;10.80;8.50;;;;;;;16.77;100.00;99990.59;5129083;27;20198;-78
2023/06/24 05:13:33;;;;;;;12.10;9.00;;;;;;;16.72;100.00;99990.13;5131799;27;20198;-78
2023/06/24 05:16:02;;;;;;;10.37;8.90;;;;;;;16.74;100.00;99991.69;5131127;27;20209;-79
2023/06/24 05:18:31;;;;;;;10.43;9.07;;;;;;;16.79;100.00;99994.91;5125888;27;20195;-78
2023/06/24 05:20:59;;;;;;;10.00;8.70;;;;;;;16.88;100.00;99998.66;5127326;27;20193;-78
2023/06/24 05:23:28;;;;;;;13.93;8.43;;;;;;;16.96;100.00;100000.75;5129802;27;20213;-78
2023/06/24 05:25:56;;;;;;;9.70;7.60;;;;;;;16.97;100.00;100000.63;5133108;27;20684;-77
2023/06/24 05:28:27;;;;;;;9.10;7.80;;;;;;;17.01;100.00;99995.91;5133339;27;20190;-78
2023/06/24 05:30:55;;;;;;;9.20;8.23;;;;;;;17.10;100.00;99990.72;5131870;27;20202;-78
2023/06/24 05:33:23;;;;;;;8.83;7.93;;;;;;;17.26;100.00;99992.16;5127509;27;20205;-78
2023/06/24 05:35:51;;;;;;;9.07;8.17;;;;;;;17.38;100.00;99992.06;5133035;27;20693;-79
2023/06/24 05:38:20;;;;;;;9.20;8.23;;;;;;;17.33;100.00;99988.03;5132727;27;20194;-78
2023/06/24 05:40:49;;;;;;;9.73;8.73;;;;;;;17.43;100.00;99994.38;5129898;27;20230;-78
2023/06/24 05:43:18;;;;;;;8.37;6.83;;;;;;;17.39;100.00;99988.41;5127357;27;20198;-78
2023/06/24 05:45:48;;;;;;;10.07;7.17;;;;;;;17.46;100.00;99988.78;5133881;27;20195;-78
2023/06/24 05:48:17;;;;;;;8.17;6.87;;;;;;;17.42;100.00;99990.84;5129008;27;20194;-78
2023/06/24 05:50:46;;;;;;;8.13;6.63;;;;;;;17.63;100.00;99988.28;5126190;27;20194;-78
2023/06/24 05:53:14;;;;;;;8.30;7.40;;;;;;;17.57;100.00;99993.31;5129297;27;20801;-78
2023/06/24 05:55:42;;;;;;;7.73;6.93;;;;;;;17.87;100.00;99979.28;5125379;27;20195;-79
2023/06/24 05:58:12;;;;;;;9.23;7.10;;;;;;;17.84;100.00;99979.53;5131001;27;20214;-78
2023/06/24 06:00:40;;;;;;;9.07;6.17;;;;;;;17.86;100.00;99975.78;5091998;27;20649;-78
2023/06/24 06:03:10;;;;;;;7.83;7.03;;;;;;;18.03;100.00;99977.91;5124763;27;20190;-78
2023/06/24 06:05:39;;;;;;;7.60;6.80;;;;;;;18.03;100.00;99991.31;5130595;27;20191;-78
2023/06/24 06:08:07;;;;;;;7.30;6.40;;;;;;;18.14;100.00;99986.88;5124155;27;20220;-78
2023/06/24 06:10:36;;;;;;;8.17;7.27;;;;;;;18.29;100.00;99974.91;5132291;27;20270;-78
2023/06/24 06:13:07;;;;;;;7.07;6.17;;;;;;;18.51;100.00;99980.19;5129366;27;20212;-79
2023/06/24 06:15:35;;;;;;;9.97;7.30;;;;;;;18.43;100.00;99979.13;5121779;27;20202;-78
2023/06/24 06:18:06;;;;;;;8.63;6.37;;;;;;;18.68;100.00;99978.81;5127898;27;20194;-78
2023/06/24 06:20:36;;;;;;;8.40;6.90;;;;;;;18.95;100.00;99983.66;5123206;27;20201;-78
2023/06/24 06:23:04;;;;;;;8.60;6.50;;;;;;;19.05;100.00;99979.22;5130197;27;20649;-78
2023/06/24 06:25:32;;;;;;;7.27;6.40;;;;;;;19.08;100.00;99978.94;5123065;27;20209;-78
2023/06/24 06:28:01;;;;;;;9.03;6.67;;;;;;;19.05;100.00;99983.72;5134715;27;20271;-78
2023/06/24 06:30:30;;;;;;;8.03;6.53;;;;;;;19.24;100.00;99970.41;5131774;27;20205;-78
2023/06/24 06:32:58;;;;;;;7.17;6.47;;;;;;;19.27;100.00;99980.88;5122737;27;20206;-78
2023/06/24 06:35:28;;;;;;;7.30;6.47;;;;;;;19.35;100.00;99978.38;5123214;27;20202;-78
2023/06/24 06:37:58;;;;;;;7.90;6.77;;;;;;;19.54;100.00;99979.44;5131518;27;20193;-78
2023/06/24 06:40:28;;;;;;;7.60;6.73;;;;;;;19.76;100.00;99981.97;5126811;27;20237;-78
2023/06/24 06:42:57;;;;;;;7.30;6.60;;;;;;;19.84;100.00;99971.38;5044701;28;20200;-78
2023/06/24 06:45:25;;;;;;;8.43;7.37;;;;;;;19.59;100.00;99970.03;5048522;28;20269;-78
2023/06/24 06:47:53;;;;;;;10.37;6.90;;;;;;;19.73;100.00;99976.88;5039330;28;20632;-78
2023/06/24 06:50:22;;;;;;;8.60;6.40;;;;;;;19.95;100.00;99971.25;5039846;28;20209;-78
2023/06/24 06:52:50;;;;;;;8.27;6.23;;;;;;;19.99;100.00;99966.47;5041296;28;20201;-78
2023/06/24 06:55:20;;;;;;;7.43;5.93;;;;;;;20.22;100.00;99975.13;5048310;28;20206;-78
2023/06/24 06:57:48;;;;;;;8.73;6.53;;;;;;;20.26;100.00;99965.78;5044051;28;20207;-78
2023/06/24 07:00:17;;;;;;;7.90;6.90;;;;;;;20.31;100.00;99966.22;5059263;27;20201;-78
2023/06/24 07:02:46;;;;;;;8.37;6.30;;;;;;;20.45;100.00;99964.97;5123463;27;20198;-78
2023/06/24 07:05:14;;;;;;;7.90;6.60;;;;;;;20.70;100.00;99964.41;5126528;27;20220;-78
2023/06/24 07:07:45;;;;;;;8.00;6.30;;;;;;;20.40;100.00;99973.47;5048006;28;20700;-78
2023/06/24 07:10:14;;;;;;;9.40;7.17;;;;;;;20.40;100.00;99970.78;5041167;28;20205;-79
2023/06/24 07:12:44;;;;;;;9.10;7.20;;;;;;;20.63;100.00;99967.81;5042171;28;20216;-78
2023/06/24 07:18:02;;;;;;;7.67;6.87;;;;;;;20.56;100.00;99970.25;5032479;28;20300;-78
2023/06/24 07:20:35;;;;;;;6.80;6.10;;;;;;;20.56;100.00;99965.72;4933436;29;20204;-78
2023/06/24 07:23:04;;;;;;;8.00;6.50;;;;;;;20.51;100.00;99962.59;4933343;29;20648;-78
2023/06/24 07:25:34;;;;;;;8.40;6.00;;;;;;;20.86;100.00;99958.47;4954860;28;20209;-78
2023/06/24 07:28:05;;;;;;;7.73;6.43;;;;;;;21.01;100.00;99959.69;5005598;28;20286;-78
2023/06/24 07:30:33;;;;;;;7.33;5.87;;;;;;;21.00;100.00;99966.06;5009413;28;20704;-78
2023/06/24 07:33:05;;;;;;;7.60;6.50;;;;;;;21.28;100.00;99963.47;5007190;28;20303;-78
2023/06/24 07:35:36;;;;;;;6.67;5.97;;;;;;;21.47;100.00;99966.09;5011758;28;20201;-78
2023/06/24 07:38:05;;;;;;;6.60;5.97;;;;;;;21.52;100.00;99965.66;5033081;28;20196;-79
2023/06/24 07:40:33;;;;;;;7.07;6.37;;;;;;;21.63;100.00;99963.63;5086542;28;20242;-78
2023/06/24 07:43:01;;;;;;;8.63;6.70;;;;;;;21.66;100.00;99967.88;5083834;28;20199;-78
2023/06/24 07:45:31;;;;;;;7.30;6.60;;;;;;;21.86;100.00;99957.81;5082435;28;20184;-78
2023/06/24 07:48:01;;;;;;;7.83;6.37;;;;;;;22.02;100.00;99959.88;5085294;28;20226;-78
2023/06/24 07:50:30;;;;;;;6.78;6.07;;;;;;;21.95;100.00;99963.16;5085579;28;20191;-78
2023/06/24 07:52:59;;;;;;;7.15;6.30;;;;;;;22.13;100.00;99965.94;5131886;28;20205;-78
2023/06/24 07:55:30;;;;;;;8.10;5.93;;;;;;;22.27;100.00;99972.63;5086567;28;20199;-78
2023/06/24 07:58:04;;;;;;;6.47;5.88;;;;;;;;;;5090152;28;20226;-78
2023/06/24 08:00:35;;;;;;;6.07;5.43;;;;;;;22.43;100.00;99967.41;5087068;28;20211;-78
2023/06/24 08:03:07;;;;;;;8.48;6.30;;;;;;;21.84;100.00;99957.97;5088081;28;20200;-79
2023/06/24 08:05:35;;;;;;;7.15;6.40;;;;;;;22.18;100.00;99958.22;5088842;28;20219;-78
2023/06/24 08:08:04;;;;;;;6.20;5.60;;;;;;;22.38;100.00;99964.31;5086944;28;20701;-78
2023/06/24 08:10:35;;;;;;;8.82;6.50;;;;;;;22.55;100.00;99954.50;5087910;28;20230;-78
2023/06/24 08:13:03;;;;;;;6.68;5.53;;;;;;;22.57;100.00;99955.19;5099360;28;20624;-79
2023/06/24 08:15:32;;;;;;;7.75;5.72;;;;;;;22.84;100.00;99959.69;5126683;28;20186;-79
2023/06/24 08:18:03;;;;;;;8.40;6.30;;;;;;;22.82;100.00;99951.72;5130699;28;20198;-78
2023/06/24 08:20:32;;;;;;;6.70;5.60;;;;;;;22.92;100.00;99951.66;5127817;28;20267;-78
2023/06/24 08:23:02;;;;;;;6.07;5.47;;;;;;;22.98;100.00;99955.59;5128768;28;20201;-78
2023/06/24 08:25:31;;;;;;;6.72;5.85;;;;;;;22.83;100.00;99952.56;5132267;28;20187;-78
2023/06/24 08:27:59;;;;;;;6.18;5.57;;;;;;;22.82;100.00;99946.31;5078951;28;20214;-78
2023/06/24 08:30:28;;;;;;;6.90;6.05;;;;;;;22.91;100.00;99944.56;5127499;28;20187;-78
2023/06/24 08:32:58;;;;;;;7.32;5.72;;;;;;;23.09;100.00;99945.34;5121761;28;20183;-77
2023/06/24 08:35:29;;;;;;;6.65;5.97;;;;;;;23.11;100.00;99948.72;5080519;28;20241;-77
2023/06/24 08:37:59;;;;;;;7.65;5.88;;;;;;;23.15;100.00;99951.94;5082927;28;20202;-76
2023/06/24 08:40:31;;;;;;;7.38;5.38;;;;;;;23.43;100.00;99947.22;5089861;28;20740;-78
2023/06/24 08:42:59;;;;;;;7.57;5.20;;;;;;;23.64;100.00;99949.53;5084564;28;20200;-78
2023/06/24 08:45:28;;;;;;;6.13;5.47;;;;;;;23.83;100.00;99941.16;5087290;28;20192;-78
2023/06/24 08:47:57;;;;;;;6.88;5.60;;;;;;;23.99;100.00;99943.94;5077250;28;20227;-79
2023/06/24 08:50:34;;;;;;;6.50;5.70;;;;;;;24.01;100.00;99949.16;5082753;28;20685;-79
2023/06/24 08:53:05;;;;;;;7.60;5.38;;;;;;;23.96;100.00;99943.41;5085728;28;20230;-78
2023/06/24 08:55:37;;;;;;;6.32;5.47;;;;;;;24.10;100.00;99942.75;5083683;28;20203;-79
2023/06/24 08:58:05;;;;;;;6.13;5.53;;;;;;;24.36;98.24;99942.69;5085171;28;20198;-79
2023/06/24 09:00:35;;;;;;;5.72;5.13;;;;;;;24.40;96.94;99948.59;5088391;28;20206;-79
2023/06/24 09:03:04;;;;;;;6.13;5.25;;;;;;;23.97;100.00;99943.25;5082683;28;20275;-78
2023/06/24 09:05:33;;;;;;;7.38;5.40;;;;;;;24.05;97.15;99950.53;5090754;27;20196;-79
2023/06/24 09:08:02;;;;;;;7.88;5.50;;;;;;;24.08;97.90;99950.22;5128232;27;20222;-78
2023/06/24 09:10:33;;;;;;;6.57;5.68;;;;;;;24.27;94.43;99939.06;5129932;27;20205;-79
2023/06/24 09:13:01;;;;;;;7.30;5.57;;;;;;;24.46;90.38;99942.50;5128215;27;20194;-79
2023/06/24 09:15:33;;;;;;;7.78;5.97;;;;;;;24.55;87.19;99941.50;5130390;27;20258;-79
2023/06/24 09:18:03;;;;;;;6.68;5.93;;;;;;;24.47;88.16;99936.94;5134876;27;20190;-79
2023/06/24 09:20:39;;;;;;;6.38;5.65;;;;;;;24.79;86.99;99932.50;5133190;27;20198;-78
2023/06/24 09:23:08;;;;;;;8.13;5.95;;;;;;;24.91;87.05;99933.88;5129383;27;20198;-78
2023/06/24 09:25:38;;;;;;;6.45;5.65;;;;;;;25.28;85.34;99924.31;5136035;27;20648;-79
2023/06/24 09:28:07;;;;;;;8.68;5.45;;;;;;;24.97;86.37;99925.03;5122904;27;20219;-78
2023/06/24 09:30:37;;;;;;;6.43;5.00;;;;;;;25.29;83.84;99918.75;5125958;27;20282;-78
2023/06/24 09:33:06;;;;;;;7.68;5.10;;;;;;;25.77;81.13;99913.31;5125471;27;20213;-79
2023/06/24 09:35:41;;;;;;;5.82;5.22;;;;;;;25.98;77.30;99910.81;5132820;27;20222;-80
2023/06/24 09:38:14;;;;;;;7.20;4.68;;;;;;;26.28;74.58;99910.97;5131741;27;20198;-81
2023/06/24 09:40:44;;;;;;;6.85;5.20;;;;;;;26.23;72.94;99908.78;5123568;27;20223;-79
2023/06/24 09:43:21;;;;;;;7.05;5.30;;;;;;;26.22;72.60;99905.22;5112638;28;20611;-79
2023/06/24 09:45:51;;;;;;;7.05;5.57;;;;;;;25.92;73.89;99906.09;5115259;28;20195;-77
2023/06/24 09:48:21;;;;;;;6.50;5.13;;;;;;;26.25;72.51;99898.59;5103154;28;20238;-78
2023/06/24 09:51:06;;;;;;;6.03;4.75;;;;;;;26.43;69.27;99890.16;5113765;28;20657;-79
2023/06/24 09:53:40;;;;;;;6.88;5.50;;;;;;;26.76;68.72;99891.56;5112036;28;20214;-78
2023/06/24 09:56:11;;;;;;;8.15;5.32;;;;;;;26.65;71.28;99889.28;5108911;28;20198;-78
2023/06/24 09:58:47;;;;;;;6.75;5.10;;;;;;;26.67;70.93;99898.09;5104274;28;20202;-77
2023/06/24 10:01:17;;;;;;;6.20;4.55;;;;;;;26.73;71.18;99891.94;5109876;28;20191;-79
2023/06/24 10:03:47;;;;;;;5.32;4.43;;;;;;;26.30;70.46;99890.75;5110681;28;20244;-79
2023/06/24 10:06:19;;;;;;;6.70;4.50;;;;;;;26.32;71.62;99883.25;5109342;28;20256;-79
2023/06/24 10:12:06;;;;;;;4.90;4.22;;;;;;;26.95;59.91;99879.31;5114508;28;20194;-80
2023/06/24 10:17:56;;;;;;;6.15;4.57;;;;;;;26.60;63.85;99874.56;5005857;28;20618;-77
2023/06/24 10:20:44;;;;;;;5.22;4.72;;;;;;;25.87;66.83;99875.94;5012122;28;20287;-78
2023/06/24 10:23:16;;;;;;;6.20;4.60;;;;;;;26.14;67.63;99869.97;4959962;28;20586;-78
2023/06/24 10:26:09;;;;;;;4.82;4.32;;;;;;;25.91;65.10;99866.41;5008306;28;20233;-79
2023/06/24 10:29:10;;;;;;;5.70;4.03;;;;;;;26.21;62.44;99867.38;5007179;28;20225;-78
2023/06/24 10:31:55;;;;;;;5.18;4.00;;;;;;;26.29;64.11;99858.31;5006601;28;20206;-78
2023/06/24 10:34:28;;;;;;;5.90;4.35;;;;;;;26.51;65.31;99854.75;5014505;28;20197;-78
2023/06/24 10:37:01;;;;;;;5.95;4.18;;;;;;;25.94;70.28;99857.91;5104632;28;20204;-78
2023/06/24 10:39:46;;;;;;;7.32;4.88;;;;;;;25.83;68.76;99856.44;5110148;28;20198;-78
2023/06/24 10:42:37;;;;;;;6.70;4.45;;;;;;;25.80;70.52;99854.09;5075690;28;20191;-78
2023/06/24 10:45:20;;;;;;;6.00;4.50;;;;;;;25.69;70.93;99858.03;5109568;28;20277;-79
2023/06/24 10:47:56;;;;;;;6.30;4.75;;;;;;;25.44;76.18;99855.59;5109936;28;20269;-77
2023/06/24 10:50:24;;;;;;;8.80;4.55;;;;;;;25.72;74.68;99854.13;5108370;28;20218;-77
2023/06/24 10:52:55;;;;;;;5.53;4.60;;;;;;;26.42;70.81;99843.13;5105143;28;20642;-77
2023/06/24 10:55:27;;;;;;;5.68;4.55;;;;;;;27.35;64.81;99842.66;5106790;28;20607;-78
2023/06/24 10:57:55;;;;;;;6.55;4.40;;;;;;;27.97;60.51;99849.47;5107917;28;20219;-78
2023/06/24 11:00:38;;;;;;;5.80;4.45;;;;;;;27.91;57.62;99842.94;5102379;28;20221;-79
2023/06/24 11:03:11;;;;;;;5.25;4.43;;;;;;;28.28;56.72;99835.56;5025727;28;20194;-78
2023/06/24 11:05:41;;;;;;;5.13;4.13;;;;;;;29.19;54.31;99832.88;5031292;28;20255;-78
2023/06/24 11:08:09;;;;;;;4.30;3.90;;;;;;;29.58;50.47;99829.50;5025023;28;20704;-79
2023/06/24 11:10:46;;;;;;;4.40;3.67;;;;;;;29.77;47.88;99825.97;5020349;28;20317;-79
2023/06/24 11:13:15;;;;;;;5.32;4.05;;;;;;;29.74;45.06;99822.84;5017598;28;20201;-79
2023/06/24 11:15:43;;;;;;;3.72;3.20;;;;;;;29.44;45.87;99820.38;5030888;28;20221;-79
2023/06/24 11:18:12;;;;;;;5.78;3.95;;;;;;;29.70;44.96;99824.28;5029624;28;20221;-79
2023/06/24 11:20:41;;;;;;;5.47;4.18;;;;;;;29.77;45.59;99816.94;5026056;28;20204;-79
2023/06/24 11:23:10;;;;;;;4.72;3.83;;;;;;;30.54;44.29;99808.22;5027072;28;20276;-79
2023/06/24 11:28:26;;;;;;;5.68;3.67;;;;;;;30.76;43.84;99808.81;5030534;28;20220;-78
2023/06/24 11:30:55;;;;;;;4.97;3.70;;;;;;;30.70;44.55;99798.75;5023059;28;20300;-79
2023/06/24 11:33:30;;;;;;;4.78;3.83;;;;;;;30.43;45.91;99795.19;5039337;28;20219;-78
2023/06/24 11:35:58;;;;;;;4.53;4.00;;;;;;;30.07;43.98;99796.44;5104719;28;20202;-77
2023/06/24 11:38:31;;;;;;;5.55;4.10;;;;;;;30.57;43.45;99790.53;5104229;28;20187;-79
2023/06/24 11:41:00;;;;;;;3.90;3.53;;;;;;;30.83;41.51;99793.25;5105032;28;20728;-79
2023/06/24 11:43:30;;;;;;;6.00;3.90;;;;;;;30.78;41.32;99784.81;5106558;28;20198;-79
2023/06/24 11:45:58;;;;;;;4.13;3.63;;;;;;;29.78;41.65;99775.75;5105072;28;20557;-80
2023/06/24 11:48:31;;;;;;;4.80;4.10;;;;;;;29.21;43.21;99777.03;5103950;28;20203;-79
2023/06/24 11:51:00;;;;;;;5.40;3.60;;;;;;;30.71;41.61;99776.66;5108320;28;20301;-80
2023/06/24 11:53:31;;;;;;;4.20;3.80;;;;;;;29.96;46.10;99771.59;5110174;28;20199;-79
2023/06/24 11:56:00;;;;;;;3.85;3.55;;;;;;;30.13;44.56;99771.00;5107515;28;20201;-79